createdAt,value
2022-12-26T00:00:37.594Z,11.27
2022-12-26T00:01:41.638Z,11.27
2022-12-26T00:02:44.319Z,11.32
2022-12-26T00:03:46.082Z,11.18
2022-12-26T00:04:53.264Z,11.25
2022-12-26T00:05:59.255Z,11.15
2022-12-26T00:07:01.687Z,11.17
2022-12-26T00:08:03.638Z,11.24
2022-12-26T00:09:08.267Z,11.39
2022-12-26T00:10:10.172Z,11.25
2022-12-26T00:11:13.301Z,11.29
2022-12-26T00:12:15.867Z,11.29
2022-12-26T00:13:38.498Z,11.29
2022-12-26T00:14:42.915Z,11.40
2022-12-26T00:15:46.899Z,11.30
2022-12-26T00:16:53.390Z,11.31
2022-12-26T00:17:55.064Z,11.48
2022-12-26T00:18:58.903Z,11.57
2022-12-26T00:20:01.825Z,11.64
2022-12-26T00:21:06.175Z,11.59
2022-12-26T00:22:07.723Z,11.73
2022-12-26T00:23:10.204Z,11.73
2022-12-26T00:24:13.559Z,11.61
2022-12-26T00:25:16.297Z,11.55
2022-12-26T00:26:19.797Z,11.56
2022-12-26T00:27:22.294Z,11.69
2022-12-26T00:28:23.854Z,11.53
2022-12-26T00:29:26.494Z,11.56
2022-12-26T00:30:28.384Z,11.66
2022-12-26T00:31:33.732Z,11.51
2022-12-26T00:32:35.277Z,11.56
2022-12-26T00:33:38.506Z,11.67
2022-12-26T00:34:40.829Z,11.80
2022-12-26T00:35:45.215Z,11.81
2022-12-26T00:36:50.840Z,11.75
2022-12-26T00:37:56.116Z,11.75
2022-12-26T00:38:59.917Z,11.68
2022-12-26T00:40:02.681Z,11.62
2022-12-26T00:41:04.714Z,11.74
2022-12-26T00:42:07.364Z,11.70
2022-12-26T00:43:09.019Z,11.79
2022-12-26T00:44:11.527Z,11.65
2022-12-26T00:45:13.052Z,11.76
2022-12-26T00:46:16.311Z,11.63
2022-12-26T00:47:18.928Z,11.69
2022-12-26T00:48:20.432Z,11.60
2022-12-26T00:49:22.866Z,11.66
2022-12-26T00:50:27.157Z,11.64
2022-12-26T00:51:32.085Z,11.72
2022-12-26T00:52:34.924Z,11.64
2022-12-26T00:53:37.495Z,11.71
2022-12-26T00:54:39.074Z,11.73
2022-12-26T00:55:41.481Z,11.86
2022-12-26T00:56:43.012Z,11.95
2022-12-26T00:57:45.608Z,11.89
2022-12-26T00:58:47.135Z,11.93
2022-12-26T00:59:49.717Z,11.86
2022-12-26T01:00:51.597Z,11.86
2022-12-26T01:01:54.178Z,12.00
2022-12-26T01:02:56.003Z,11.98
2022-12-26T01:04:01.777Z,11.97
2022-12-26T01:05:03.833Z,11.68
2022-12-26T01:06:06.537Z,11.76
2022-12-26T01:07:10.903Z,11.62
2022-12-26T01:08:22.616Z,11.50
2022-12-26T01:09:27.198Z,11.54
2022-12-26T01:10:28.712Z,11.59
2022-12-26T01:11:43.102Z,11.50
2022-12-26T01:12:44.608Z,11.61
2022-12-26T01:13:47.049Z,11.67
2022-12-26T01:14:48.543Z,11.64
2022-12-26T01:15:51.783Z,11.66
2022-12-26T01:16:54.388Z,11.65
2022-12-26T01:17:56.201Z,11.61
2022-12-26T01:18:58.887Z,11.58
2022-12-26T01:20:00.920Z,11.64
2022-12-26T01:21:05.806Z,11.60
2022-12-26T01:22:07.289Z,11.50
2022-12-26T01:23:11.758Z,11.56
2022-12-26T01:24:15.569Z,11.59
2022-12-26T01:25:20.173Z,11.70
2022-12-26T01:26:22.666Z,11.65
2022-12-26T01:27:25.867Z,11.70
2022-12-26T01:28:28.320Z,11.64
2022-12-26T01:29:29.862Z,11.47
2022-12-26T01:30:32.268Z,11.41
2022-12-26T01:31:33.802Z,11.45
2022-12-26T01:32:36.292Z,11.60
2022-12-26T01:33:37.811Z,11.60
2022-12-26T01:34:40.257Z,11.63
2022-12-26T01:35:50.226Z,11.68
2022-12-26T01:36:54.307Z,11.65
2022-12-26T01:37:56.502Z,11.70
2022-12-26T01:38:58.983Z,11.65
2022-12-26T01:40:01.877Z,11.74
2022-12-26T01:41:20.880Z,11.80
2022-12-26T01:42:25.151Z,11.94
2022-12-26T01:43:27.603Z,12.00
2022-12-26T01:45:10.033Z,11.85
2022-12-26T01:46:11.595Z,11.86
2022-12-26T01:47:14.299Z,11.92
2022-12-26T01:48:20.857Z,11.89
2022-12-26T01:49:32.763Z,11.95
2022-12-26T01:50:40.801Z,11.89
2022-12-26T01:51:48.265Z,11.90
2022-12-26T01:52:58.394Z,12.03
2022-12-26T01:54:37.990Z,12.07
2022-12-26T01:55:33.002Z,12.12
2022-12-26T01:56:41.048Z,12.19
2022-12-26T01:57:47.538Z,12.04
2022-12-26T01:58:54.213Z,11.95
2022-12-26T01:59:58.458Z,12.02
2022-12-26T02:01:04.613Z,11.96
2022-12-26T02:02:06.796Z,11.99
2022-12-26T02:03:28.047Z,12.01
2022-12-26T02:04:54.997Z,12.21
2022-12-26T02:06:00.583Z,12.28
2022-12-26T02:07:11.245Z,12.21
2022-12-26T02:08:18.196Z,12.13
2022-12-26T02:09:20.509Z,12.07
2022-12-26T02:10:27.596Z,12.15
2022-12-26T02:11:41.453Z,12.08
2022-12-26T02:12:44.004Z,12.29
2022-12-26T02:13:50.588Z,12.38
2022-12-26T02:14:52.255Z,12.40
2022-12-26T02:15:54.743Z,12.30
2022-12-26T02:16:56.475Z,12.46
2022-12-26T02:17:58.990Z,12.49
2022-12-26T02:19:00.662Z,12.38
2022-12-26T02:20:11.768Z,12.25
2022-12-26T02:21:42.831Z,12.11
2022-12-26T02:23:23.920Z,12.11
2022-12-26T02:24:56.740Z,12.26
2022-12-26T02:26:30.172Z,12.27
2022-12-26T02:28:00.454Z,12.35
2022-12-26T02:29:26.942Z,12.26
2022-12-26T02:30:42.807Z,12.22
2022-12-26T02:31:50.081Z,12.20
2022-12-26T02:33:09.032Z,12.24
2022-12-26T02:34:15.750Z,12.30
2022-12-26T02:35:29.568Z,12.41
2022-12-26T02:36:50.357Z,12.34
2022-12-26T02:38:00.766Z,12.29
2022-12-26T02:39:45.587Z,12.42
2022-12-26T02:40:52.975Z,12.34
2022-12-26T02:42:09.499Z,12.36
2022-12-26T02:43:22.689Z,12.24
2022-12-26T02:44:46.029Z,12.31
2022-12-26T02:46:17.825Z,12.37
2022-12-26T02:47:27.421Z,12.41
2022-12-26T02:48:37.290Z,12.32
2022-12-26T02:50:13.167Z,12.21
2022-12-26T02:51:41.889Z,12.15
2022-12-26T02:53:13.354Z,12.26
2022-12-26T02:54:41.224Z,12.33
2022-12-26T02:56:05.868Z,12.38
2022-12-26T02:57:35.052Z,12.22
2022-12-26T02:59:00.988Z,12.22
2022-12-26T03:00:26.495Z,12.20
2022-12-26T03:01:55.234Z,12.18
2022-12-26T03:03:20.544Z,12.21
2022-12-26T03:04:42.906Z,12.17
2022-12-26T03:06:10.546Z,12.20
2022-12-26T03:07:39.239Z,12.23
2022-12-26T03:09:07.721Z,12.28
2022-12-26T03:10:36.746Z,12.26
2022-12-26T03:12:00.163Z,12.29
2022-12-26T03:13:13.456Z,12.28
2022-12-26T03:14:19.007Z,12.29
2022-12-26T03:15:24.976Z,12.20
2022-12-26T03:16:45.718Z,12.17
2022-12-26T03:17:58.110Z,12.15
2022-12-26T03:19:05.683Z,12.18
2022-12-26T03:20:13.716Z,12.01
2022-12-26T03:21:18.419Z,12.17
2022-12-26T03:22:33.956Z,11.95
2022-12-26T03:23:41.357Z,11.93
2022-12-26T03:24:57.912Z,11.96
2022-12-26T03:26:22.533Z,11.98
2022-12-26T03:27:25.071Z,11.95
2022-12-26T03:28:27.140Z,11.96
2022-12-26T03:29:47.163Z,12.08
2022-12-26T03:30:49.030Z,12.18
2022-12-26T03:31:50.651Z,11.94
2022-12-26T03:32:58.670Z,12.00
2022-12-26T03:34:18.564Z,12.03
2022-12-26T03:35:21.049Z,12.04
2022-12-26T03:36:36.263Z,12.05
2022-12-26T03:37:50.350Z,12.16
2022-12-26T03:39:07.624Z,12.18
2022-12-26T03:40:43.798Z,12.16
2022-12-26T03:42:13.675Z,12.16
2022-12-26T03:43:46.548Z,12.09
2022-12-26T03:45:15.071Z,12.21
2022-12-26T03:46:41.711Z,12.13
2022-12-26T03:48:13.546Z,12.06
2022-12-26T03:49:41.005Z,12.08
2022-12-26T03:51:05.732Z,11.93
2022-12-26T03:52:33.101Z,11.76
2022-12-26T03:54:06.738Z,11.95
2022-12-26T03:55:33.893Z,11.99
2022-12-26T03:56:59.450Z,11.92
2022-12-26T03:58:25.469Z,11.84
2022-12-26T04:00:03.900Z,11.83
2022-12-26T04:01:29.096Z,11.87
2022-12-26T04:02:52.512Z,11.95
2022-12-26T04:04:16.296Z,11.96
2022-12-26T04:05:39.130Z,12.17
2022-12-26T04:07:04.082Z,12.19
2022-12-26T04:08:38.238Z,11.92
2022-12-26T04:10:02.495Z,11.84
2022-12-26T04:11:32.089Z,12.01
2022-12-26T04:12:56.249Z,12.04
2022-12-26T04:14:23.338Z,12.04
2022-12-26T04:15:50.925Z,11.96
2022-12-26T04:17:17.970Z,11.92
2022-12-26T04:18:45.942Z,11.98
2022-12-26T04:20:01.186Z,11.94
2022-12-26T04:21:30.456Z,12.11
2022-12-26T04:22:59.143Z,12.19
2022-12-26T04:24:26.231Z,12.23
2022-12-26T04:25:51.759Z,12.28
2022-12-26T04:27:17.561Z,12.24
2022-12-26T04:28:38.494Z,12.21
2022-12-26T04:29:58.944Z,12.19
2022-12-26T04:31:25.261Z,12.19
2022-12-26T04:32:54.178Z,12.31
2022-12-26T04:34:20.039Z,12.23
2022-12-26T04:35:50.782Z,12.22
2022-12-26T04:37:18.010Z,12.32
2022-12-26T04:38:42.944Z,12.30
2022-12-26T04:40:07.436Z,12.10
2022-12-26T04:41:30.227Z,12.18
2022-12-26T04:42:54.622Z,12.20
2022-12-26T04:44:07.538Z,12.40
2022-12-26T04:45:10.952Z,12.18
2022-12-26T04:46:17.940Z,12.28
2022-12-26T04:47:19.642Z,12.32
2022-12-26T04:48:39.861Z,11.95
2022-12-26T04:50:03.515Z,11.95
2022-12-26T04:51:06.542Z,12.07
2022-12-26T04:52:11.993Z,12.13
2022-12-26T04:53:16.114Z,12.31
2022-12-26T04:54:18.499Z,12.37
2022-12-26T04:55:22.830Z,12.28
2022-12-26T04:56:24.432Z,12.29
2022-12-26T04:57:26.849Z,12.24
2022-12-26T04:58:31.284Z,12.27
2022-12-26T04:59:34.366Z,12.30
2022-12-26T05:00:38.611Z,12.30
2022-12-26T05:02:02.107Z,12.34
2022-12-26T05:03:36.839Z,12.25
2022-12-26T05:04:57.151Z,12.30
2022-12-26T05:06:17.425Z,12.20
2022-12-26T05:07:41.677Z,12.17
2022-12-26T05:09:04.107Z,12.02
2022-12-26T05:10:11.449Z,12.11
2022-12-26T05:11:12.975Z,12.22
2022-12-26T05:12:15.453Z,12.12
2022-12-26T05:13:17.071Z,12.20
2022-12-26T05:14:19.634Z,12.10
2022-12-26T05:15:21.774Z,12.25
2022-12-26T05:16:43.765Z,12.25
2022-12-26T05:18:04.164Z,12.32
2022-12-26T05:19:26.013Z,12.08
2022-12-26T05:20:42.711Z,11.86
2022-12-26T05:22:03.060Z,11.92
2022-12-26T05:23:34.049Z,12.12
2022-12-26T05:24:57.971Z,11.95
2022-12-26T05:26:18.132Z,11.90
2022-12-26T05:27:39.402Z,11.92
2022-12-26T05:28:44.870Z,11.94
2022-12-26T05:29:48.957Z,12.03
2022-12-26T05:30:51.452Z,11.94
2022-12-26T05:31:55.064Z,12.11
2022-12-26T05:33:15.258Z,12.21
2022-12-26T05:34:20.812Z,12.13
2022-12-26T05:35:22.498Z,12.05
2022-12-26T05:36:28.634Z,12.12
2022-12-26T05:37:30.237Z,12.20
2022-12-26T05:38:34.132Z,12.08
2022-12-26T05:39:35.637Z,12.10
2022-12-26T05:40:38.200Z,11.99
2022-12-26T05:41:40.607Z,12.00
2022-12-26T05:42:43.328Z,12.17
2022-12-26T05:43:48.673Z,12.12
2022-12-26T05:44:51.200Z,12.27
2022-12-26T05:45:52.722Z,12.29
2022-12-26T05:46:55.317Z,12.19
2022-12-26T05:47:58.402Z,12.33
2022-12-26T05:49:01.367Z,12.41
2022-12-26T05:50:05.911Z,12.40
2022-12-26T05:51:09.077Z,12.48
2022-12-26T05:52:10.591Z,12.42
2022-12-26T05:53:13.222Z,12.33
2022-12-26T05:54:17.204Z,12.38
2022-12-26T05:55:18.736Z,12.17
2022-12-26T05:56:22.181Z,12.16
2022-12-26T05:57:23.671Z,12.20
2022-12-26T05:58:26.132Z,11.99
2022-12-26T05:59:28.161Z,12.07
2022-12-26T06:00:31.507Z,12.09
2022-12-26T06:01:34.070Z,12.11
2022-12-26T06:02:35.936Z,12.04
2022-12-26T06:03:39.297Z,12.01
2022-12-26T06:04:41.846Z,12.12
2022-12-26T06:05:43.415Z,12.08
2022-12-26T06:06:45.911Z,11.99
2022-12-26T06:07:48.893Z,11.95
2022-12-26T06:08:52.752Z,11.91
2022-12-26T06:09:55.602Z,12.06
2022-12-26T06:10:58.197Z,11.95
2022-12-26T06:11:59.721Z,11.95
2022-12-26T06:13:02.550Z,12.09
2022-12-26T06:14:04.818Z,12.09
2022-12-26T06:15:08.360Z,11.86
2022-12-26T06:16:12.410Z,11.91
2022-12-26T06:17:15.437Z,11.89
2022-12-26T06:18:17.108Z,11.93
2022-12-26T06:19:19.665Z,11.99
2022-12-26T06:20:21.233Z,12.02
2022-12-26T06:21:23.828Z,12.02
2022-12-26T06:22:25.400Z,11.95
2022-12-26T06:23:29.572Z,11.75
2022-12-26T06:24:31.568Z,11.68
2022-12-26T06:25:35.876Z,11.82
2022-12-26T06:26:37.854Z,11.68
2022-12-26T06:27:40.417Z,11.75
2022-12-26T06:28:43.578Z,11.68
2022-12-26T06:29:46.982Z,11.75
2022-12-26T06:30:48.554Z,11.74
2022-12-26T06:31:51.197Z,11.68
2022-12-26T06:32:52.806Z,11.64
2022-12-26T06:33:58.356Z,11.65
2022-12-26T06:34:59.948Z,11.58
2022-12-26T06:36:06.856Z,11.66
2022-12-26T06:37:09.410Z,11.66
2022-12-26T06:38:11.534Z,11.80
2022-12-26T06:39:13.991Z,11.72
2022-12-26T06:40:15.620Z,11.80
2022-12-26T06:41:21.772Z,11.93
2022-12-26T06:42:23.481Z,11.94
2022-12-26T06:43:25.938Z,11.87
2022-12-26T06:44:27.551Z,11.70
2022-12-26T06:45:30.069Z,11.63
2022-12-26T06:46:31.648Z,11.67
2022-12-26T06:47:36.029Z,11.85
2022-12-26T06:48:39.796Z,11.75
2022-12-26T06:49:44.475Z,11.58
2022-12-26T06:50:45.999Z,11.51
2022-12-26T06:51:48.524Z,11.64
2022-12-26T06:52:50.027Z,11.78
2022-12-26T06:53:53.785Z,11.75
2022-12-26T06:54:55.268Z,11.74
2022-12-26T06:56:06.811Z,11.61
2022-12-26T06:57:09.729Z,11.65
2022-12-26T06:58:12.318Z,11.68
2022-12-26T06:59:14.822Z,11.52
2022-12-26T07:00:16.613Z,11.49
2022-12-26T07:01:20.468Z,11.44
2022-12-26T07:02:22.211Z,11.31
2022-12-26T07:03:26.270Z,11.38
2022-12-26T07:04:28.018Z,11.52
2022-12-26T07:05:30.571Z,11.54
2022-12-26T07:06:34.192Z,11.62
2022-12-26T07:07:36.694Z,11.56
2022-12-26T07:08:38.789Z,11.53
2022-12-26T07:09:41.302Z,11.52
2022-12-26T07:10:42.819Z,11.46
2022-12-26T07:11:48.172Z,11.62
2022-12-26T07:12:51.097Z,11.71
2022-12-26T07:13:55.151Z,11.76
2022-12-26T07:15:01.492Z,11.87
2022-12-26T07:16:04.876Z,11.74
2022-12-26T07:17:06.454Z,11.58
2022-12-26T07:18:11.152Z,11.57
2022-12-26T07:19:14.282Z,11.56
2022-12-26T07:20:16.979Z,11.57
2022-12-26T07:21:18.752Z,11.70
2022-12-26T07:22:21.263Z,11.66
2022-12-26T07:23:23.008Z,11.59
2022-12-26T07:24:25.476Z,11.55
2022-12-26T07:25:27.022Z,11.55
2022-12-26T07:26:31.272Z,11.59
2022-12-26T07:27:32.824Z,11.64
2022-12-26T07:28:36.629Z,11.77
2022-12-26T07:29:38.137Z,11.68
2022-12-26T07:30:40.603Z,11.66
2022-12-26T07:31:42.527Z,11.60
2022-12-26T07:32:45.005Z,11.62
2022-12-26T07:33:48.911Z,11.65
2022-12-26T07:34:51.377Z,11.76
2022-12-26T07:35:59.267Z,11.82
2022-12-26T07:37:04.093Z,11.93
2022-12-26T07:38:05.703Z,11.73
2022-12-26T07:39:11.160Z,11.58
2022-12-26T07:40:12.989Z,11.60
2022-12-26T07:41:33.294Z,11.58
2022-12-26T07:42:37.409Z,11.59
2022-12-26T07:43:40.512Z,11.67
2022-12-26T07:44:45.917Z,11.78
2022-12-26T07:45:50.871Z,11.73
2022-12-26T07:46:53.997Z,11.76
2022-12-26T07:47:57.632Z,11.79
2022-12-26T07:49:00.700Z,11.58
2022-12-26T07:50:02.264Z,11.68
2022-12-26T07:51:06.643Z,11.79
2022-12-26T07:52:08.144Z,11.79
2022-12-26T07:53:10.669Z,11.61
2022-12-26T07:54:12.608Z,11.65
2022-12-26T07:55:15.483Z,11.62
2022-12-26T07:56:20.030Z,11.81
2022-12-26T07:57:47.413Z,11.90
2022-12-26T07:58:48.638Z,12.03
2022-12-26T07:59:53.639Z,11.91
2022-12-26T08:00:55.693Z,11.94
2022-12-26T08:02:04.819Z,12.04
2022-12-26T08:03:08.444Z,11.82
2022-12-26T08:04:10.715Z,11.89
2022-12-26T08:05:14.148Z,11.84
2022-12-26T08:06:15.762Z,12.04
2022-12-26T08:07:18.272Z,12.05
2022-12-26T08:08:19.800Z,11.77
2022-12-26T08:09:22.312Z,11.83
2022-12-26T08:10:23.883Z,11.89
2022-12-26T08:11:26.690Z,12.01
2022-12-26T08:12:28.257Z,12.07
2022-12-26T08:13:31.293Z,12.11
2022-12-26T08:14:34.173Z,12.09
2022-12-26T08:15:39.761Z,12.28
2022-12-26T08:16:41.308Z,12.52
2022-12-26T08:17:43.814Z,12.25
2022-12-26T08:18:45.430Z,12.08
2022-12-26T08:19:48.003Z,12.11
2022-12-26T08:20:49.728Z,12.36
2022-12-26T08:21:52.214Z,12.39
2022-12-26T08:22:53.724Z,12.31
2022-12-26T08:23:56.152Z,12.35
2022-12-26T08:24:57.721Z,12.44
2022-12-26T08:26:00.213Z,12.65
2022-12-26T08:27:05.705Z,12.83
2022-12-26T08:28:07.315Z,12.69
2022-12-26T08:29:11.688Z,12.85
2022-12-26T08:30:14.568Z,12.69
2022-12-26T08:31:17.660Z,12.55
2022-12-26T08:32:19.208Z,12.28
2022-12-26T08:33:21.710Z,12.19
2022-12-26T08:34:23.303Z,12.30
2022-12-26T08:35:25.820Z,12.34
2022-12-26T08:36:27.457Z,12.32
2022-12-26T08:37:30.541Z,12.34
2022-12-26T08:38:34.085Z,12.43
2022-12-26T08:39:36.792Z,12.47
2022-12-26T08:40:45.721Z,12.46
2022-12-26T08:41:48.219Z,12.59
2022-12-26T08:43:03.342Z,12.22
2022-12-26T08:44:29.169Z,12.31
2022-12-26T08:45:33.217Z,12.41
2022-12-26T08:46:34.780Z,12.30
2022-12-26T08:47:37.289Z,12.40
2022-12-26T08:48:40.381Z,12.34
2022-12-26T08:49:43.012Z,12.40
2022-12-26T08:50:44.489Z,12.44
2022-12-26T08:51:47.039Z,12.58
2022-12-26T08:52:48.625Z,12.46
2022-12-26T08:53:52.317Z,12.34
2022-12-26T08:54:53.952Z,12.31
2022-12-26T08:55:57.287Z,12.39
2022-12-26T08:56:59.769Z,12.43
2022-12-26T08:58:03.957Z,12.42
2022-12-26T08:59:06.565Z,12.41
2022-12-26T09:00:09.767Z,12.58
2022-12-26T09:01:16.305Z,12.58
2022-12-26T09:02:21.440Z,12.68
2022-12-26T09:03:25.665Z,12.75
2022-12-26T09:04:30.438Z,12.87
2022-12-26T09:05:32.243Z,12.77
2022-12-26T09:06:35.913Z,12.69
2022-12-26T09:07:37.553Z,12.84
2022-12-26T09:08:43.854Z,12.73
2022-12-26T09:09:45.477Z,12.79
2022-12-26T09:10:48.040Z,12.74
2022-12-26T09:11:50.605Z,12.65
2022-12-26T09:12:52.211Z,12.42
2022-12-26T09:13:55.146Z,12.47
2022-12-26T09:14:58.532Z,12.28
2022-12-26T09:16:06.898Z,12.32
2022-12-26T09:17:10.248Z,12.29
2022-12-26T09:18:13.028Z,12.37
2022-12-26T09:19:21.770Z,12.18
2022-12-26T09:20:29.015Z,12.31
2022-12-26T09:21:32.598Z,12.52
2022-12-26T09:22:56.414Z,12.46
2022-12-26T09:23:58.987Z,12.72
2022-12-26T09:25:01.605Z,12.79
2022-12-26T09:26:10.885Z,12.50
2022-12-26T09:27:16.712Z,12.62
2022-12-26T09:28:18.240Z,12.51
2022-12-26T09:29:20.958Z,12.67
2022-12-26T09:30:23.038Z,12.69
2022-12-26T09:31:27.052Z,12.70
2022-12-26T09:32:33.712Z,12.52
2022-12-26T09:33:37.624Z,12.66
2022-12-26T09:34:39.373Z,12.82
2022-12-26T09:35:42.199Z,12.70
2022-12-26T09:36:43.798Z,12.76
2022-12-26T09:37:46.665Z,12.50
2022-12-26T09:38:49.180Z,12.65
2022-12-26T09:39:51.649Z,12.50
2022-12-26T09:41:05.422Z,12.78
2022-12-26T09:42:21.046Z,12.89
2022-12-26T09:43:29.714Z,12.75
2022-12-26T09:44:44.756Z,12.81
2022-12-26T09:45:56.676Z,12.34
2022-12-26T09:47:09.663Z,12.23
2022-12-26T09:48:19.678Z,12.53
2022-12-26T09:49:25.642Z,12.51
2022-12-26T09:50:30.986Z,12.71
2022-12-26T09:51:34.643Z,12.69
2022-12-26T09:52:44.286Z,12.90
2022-12-26T09:53:47.636Z,13.13
2022-12-26T09:54:57.141Z,13.13
2022-12-26T09:56:02.244Z,13.18
2022-12-26T09:57:14.889Z,13.28
2022-12-26T09:58:25.838Z,13.03
2022-12-26T09:59:29.669Z,13.19
2022-12-26T10:00:43.656Z,13.17
2022-12-26T10:01:48.931Z,13.20
2022-12-26T10:02:54.779Z,13.22
2022-12-26T10:04:00.925Z,13.13
2022-12-26T10:05:02.616Z,13.05
2022-12-26T10:06:12.650Z,12.89
2022-12-26T10:07:22.935Z,12.93
2022-12-26T10:08:31.443Z,13.16
2022-12-26T10:09:56.830Z,13.32
2022-12-26T10:11:02.063Z,13.50
2022-12-26T10:12:22.573Z,13.19
2022-12-26T10:13:33.421Z,13.00
2022-12-26T10:14:41.561Z,13.22
2022-12-26T10:15:48.940Z,13.23
2022-12-26T10:16:55.178Z,12.89
2022-12-26T10:18:09.184Z,12.99
2022-12-26T10:19:32.487Z,12.97
2022-12-26T10:20:46.183Z,12.94
2022-12-26T10:21:58.306Z,12.93
2022-12-26T10:23:27.258Z,13.05
2022-12-26T10:24:33.624Z,12.90
2022-12-26T10:25:42.477Z,12.88
2022-12-26T10:26:51.406Z,13.04
2022-12-26T10:27:53.161Z,13.21
2022-12-26T10:29:00.353Z,13.19
2022-12-26T10:30:07.253Z,13.16
2022-12-26T10:31:17.598Z,13.13
2022-12-26T10:32:27.867Z,12.94
2022-12-26T10:33:39.393Z,13.16
2022-12-26T10:34:44.276Z,13.32
2022-12-26T10:35:47.741Z,13.22
2022-12-26T10:36:51.094Z,13.34
2022-12-26T10:37:54.572Z,13.27
2022-12-26T10:38:59.811Z,13.30
2022-12-26T10:40:15.159Z,13.29
2022-12-26T10:41:23.128Z,13.25
2022-12-26T10:42:34.150Z,13.13
2022-12-26T10:43:41.163Z,13.01
2022-12-26T10:44:43.699Z,12.84
2022-12-26T10:45:50.892Z,12.66
2022-12-26T10:47:14.572Z,12.59
2022-12-26T10:48:16.947Z,12.44
2022-12-26T10:49:22.887Z,12.10
2022-12-26T10:50:30.508Z,11.81
2022-12-26T10:51:33.731Z,11.78
2022-12-26T10:52:39.935Z,11.76
2022-12-26T10:53:44.156Z,11.61
2022-12-26T10:54:49.364Z,11.73
2022-12-26T10:55:51.840Z,11.79
2022-12-26T10:56:55.595Z,11.64
2022-12-26T10:58:04.129Z,11.69
2022-12-26T10:59:09.457Z,11.52
2022-12-26T11:00:17.723Z,11.35
2022-12-26T11:01:34.345Z,11.59
2022-12-26T11:02:37.080Z,11.78
2022-12-26T11:03:54.029Z,11.63
2022-12-26T11:06:26.060Z,11.43
2022-12-26T11:07:30.988Z,11.11
2022-12-26T11:08:43.038Z,11.06
2022-12-26T11:09:46.052Z,10.93
2022-12-26T11:11:03.081Z,10.85
2022-12-26T11:12:05.519Z,10.92
2022-12-26T11:13:20.810Z,11.08
2022-12-26T11:14:35.610Z,10.69
2022-12-26T11:15:41.908Z,10.66
2022-12-26T11:16:43.583Z,10.54
2022-12-26T11:17:48.117Z,10.41
2022-12-26T11:18:52.187Z,10.44
2022-12-26T11:20:23.823Z,10.38
2022-12-26T11:21:29.671Z,10.37
2022-12-26T11:22:31.986Z,10.44
2022-12-26T11:23:34.538Z,10.55
2022-12-26T11:24:36.110Z,10.71
2022-12-26T11:25:49.601Z,10.55
2022-12-26T11:26:51.195Z,10.55
2022-12-26T11:27:55.634Z,10.40
2022-12-26T11:29:11.463Z,10.12
2022-12-26T11:30:26.021Z,10.35
2022-12-26T11:31:30.915Z,10.22
2022-12-26T11:32:32.700Z,10.17
2022-12-26T11:33:37.266Z,10.23
2022-12-26T11:34:45.995Z,10.16
2022-12-26T11:35:55.240Z,10.09
2022-12-26T11:36:59.325Z,10.19
2022-12-26T11:38:03.087Z,10.37
2022-12-26T11:39:08.885Z,10.33
2022-12-26T11:40:20.149Z,10.31
2022-12-26T11:41:39.709Z,10.34
2022-12-26T11:42:41.447Z,10.16
2022-12-26T11:43:44.262Z,10.14
2022-12-26T11:44:52.317Z,10.18
2022-12-26T11:45:53.965Z,10.25
2022-12-26T11:47:01.144Z,10.33
2022-12-26T11:48:02.837Z,10.43
2022-12-26T11:49:06.609Z,10.26
2022-12-26T11:50:12.051Z,10.52
2022-12-26T11:51:14.944Z,10.26
2022-12-26T11:52:39.740Z,10.02
2022-12-26T11:53:43.947Z,9.97
2022-12-26T11:54:53.827Z,10.15
2022-12-26T11:56:01.705Z,10.21
2022-12-26T11:57:17.848Z,10.16
2022-12-26T11:58:25.351Z,10.24
2022-12-26T11:59:26.894Z,10.27
2022-12-26T12:00:30.291Z,10.29
2022-12-26T12:01:32.119Z,10.39
2022-12-26T12:02:36.537Z,10.55
2022-12-26T12:03:48.573Z,10.38
2022-12-26T12:04:54.693Z,10.45
2022-12-26T12:06:03.289Z,10.29
2022-12-26T12:07:14.408Z,10.32
2022-12-26T12:08:35.212Z,10.40
2022-12-26T12:09:45.310Z,10.37
2022-12-26T12:11:00.854Z,10.30
2022-12-26T12:12:11.785Z,10.29
2022-12-26T12:13:21.484Z,10.50
2022-12-26T12:14:36.144Z,10.57
2022-12-26T12:15:43.822Z,10.55
2022-12-26T12:16:56.588Z,10.61
2022-12-26T12:18:05.294Z,10.55
2022-12-26T12:19:21.727Z,10.72
2022-12-26T12:20:32.628Z,10.63
2022-12-26T12:21:42.122Z,10.59
2022-12-26T12:22:59.334Z,10.68
2022-12-26T12:24:31.064Z,10.57
2022-12-26T12:25:43.207Z,10.48
2022-12-26T12:27:01.622Z,10.64
2022-12-26T12:28:19.963Z,10.85
2022-12-26T12:29:35.473Z,10.82
2022-12-26T12:30:45.673Z,10.83
2022-12-26T12:32:07.142Z,10.99
2022-12-26T12:33:36.927Z,10.96
2022-12-26T12:34:56.372Z,10.97
2022-12-26T12:36:09.515Z,11.08
2022-12-26T12:37:24.348Z,11.08
2022-12-26T12:38:30.509Z,11.00
2022-12-26T12:39:47.067Z,10.94
2022-12-26T12:40:55.996Z,10.96
2022-12-26T12:42:23.494Z,11.09
2022-12-26T12:43:31.416Z,11.08
2022-12-26T12:44:56.577Z,11.13
2022-12-26T12:46:11.557Z,11.34
2022-12-26T12:47:24.645Z,11.13
2022-12-26T12:48:42.935Z,11.02
2022-12-26T12:49:59.907Z,11.22
2022-12-26T12:51:12.308Z,11.23
2022-12-26T12:52:25.215Z,11.19
2022-12-26T12:53:52.964Z,11.16
2022-12-26T12:55:29.750Z,11.27
2022-12-26T12:56:42.573Z,11.22
2022-12-26T12:57:50.279Z,11.22
2022-12-26T12:59:02.080Z,11.27
2022-12-26T13:00:13.738Z,11.14
2022-12-26T13:01:24.244Z,11.28
2022-12-26T13:02:32.262Z,11.18
2022-12-26T13:03:42.173Z,11.29
2022-12-26T13:04:49.557Z,11.05
2022-12-26T13:05:58.655Z,11.05
2022-12-26T13:07:06.187Z,11.13
2022-12-26T13:08:15.121Z,10.83
2022-12-26T13:09:21.961Z,10.83
2022-12-26T13:10:30.399Z,10.93
2022-12-26T13:11:38.198Z,11.04
2022-12-26T13:12:43.992Z,11.26
2022-12-26T13:13:54.039Z,11.31
2022-12-26T13:14:58.306Z,11.35
2022-12-26T13:16:07.204Z,11.22
2022-12-26T13:17:13.227Z,11.35
2022-12-26T13:18:19.762Z,11.47
2022-12-26T13:19:25.599Z,11.38
2022-12-26T13:20:35.414Z,11.43
2022-12-26T13:21:40.819Z,11.62
2022-12-26T13:23:10.238Z,11.82
2022-12-26T13:24:25.992Z,11.81
2022-12-26T13:25:35.810Z,12.01
2022-12-26T13:26:40.820Z,11.88
2022-12-26T13:27:43.217Z,11.74
2022-12-26T13:28:57.626Z,11.84
2022-12-26T13:29:59.208Z,11.89
2022-12-26T13:31:01.732Z,11.80
2022-12-26T13:32:14.189Z,11.76
2022-12-26T13:33:15.975Z,11.65
2022-12-26T13:34:20.780Z,11.96
2022-12-26T13:35:52.321Z,11.79
2022-12-26T13:36:56.640Z,11.88
2022-12-26T13:37:58.647Z,11.76
2022-12-26T13:39:27.919Z,11.94
2022-12-26T13:40:32.390Z,12.19
2022-12-26T13:41:54.207Z,12.27
2022-12-26T13:43:19.344Z,12.36
2022-12-26T13:44:31.092Z,12.39
2022-12-26T13:45:48.833Z,12.51
2022-12-26T13:46:56.674Z,12.60
2022-12-26T13:48:00.670Z,12.75
2022-12-26T13:49:04.478Z,12.83
2022-12-26T13:50:48.512Z,12.48
2022-12-26T13:51:58.881Z,12.36
2022-12-26T13:53:00.559Z,12.48
2022-12-26T13:54:11.691Z,12.39
2022-12-26T13:55:44.108Z,12.29
2022-12-26T13:57:17.133Z,12.31
2022-12-26T13:58:45.912Z,12.03
2022-12-26T14:00:04.099Z,11.89
2022-12-26T14:01:18.910Z,11.96
2022-12-26T14:04:35.330Z,12.18
2022-12-26T14:05:44.168Z,12.27
2022-12-26T14:07:01.217Z,12.41
2022-12-26T14:08:10.882Z,12.65
2022-12-26T14:09:29.825Z,12.60
2022-12-26T14:10:40.900Z,12.08
2022-12-26T14:12:09.625Z,12.25
2022-12-26T14:13:34.673Z,12.45
2022-12-26T14:14:53.856Z,12.44
2022-12-26T14:16:03.572Z,12.47
2022-12-26T14:17:15.616Z,12.19
2022-12-26T14:18:32.629Z,12.19
2022-12-26T14:19:43.583Z,11.97
2022-12-26T14:20:52.728Z,12.09
2022-12-26T14:22:01.472Z,11.90
2022-12-26T14:23:16.878Z,12.04
2022-12-26T14:24:30.094Z,12.30
2022-12-26T14:25:38.817Z,12.48
2022-12-26T14:26:47.931Z,12.67
2022-12-26T14:27:55.897Z,12.63
2022-12-26T14:29:10.240Z,12.73
2022-12-26T14:30:23.052Z,12.82
2022-12-26T14:31:32.973Z,12.89
2022-12-26T14:32:42.099Z,12.86
2022-12-26T14:33:51.891Z,12.85
2022-12-26T14:35:02.952Z,12.90
2022-12-26T14:36:20.137Z,12.67
2022-12-26T14:37:30.957Z,12.51
2022-12-26T14:38:39.585Z,12.63
2022-12-26T14:39:53.958Z,12.70
2022-12-26T14:41:04.616Z,11.80
2022-12-26T14:42:36.056Z,11.89
2022-12-26T14:43:39.342Z,12.14
2022-12-26T14:44:44.187Z,12.27
2022-12-26T14:45:50.672Z,12.14
2022-12-26T14:47:04.293Z,12.06
2022-12-26T14:48:39.329Z,12.13
2022-12-26T14:49:43.264Z,11.62
2022-12-26T14:50:49.268Z,11.54
2022-12-26T14:51:52.116Z,11.64
2022-12-26T14:52:53.777Z,11.81
2022-12-26T14:54:17.479Z,11.88
2022-12-26T14:55:52.217Z,11.91